createdAt,value
2019-05-30T00:00:20.591Z,101241.42
2019-05-30T00:02:53.924Z,101242.42
2019-05-30T00:05:27.176Z,101242.42
2019-05-30T00:07:58.926Z,101239.39
2019-05-30T00:10:31.194Z,101239.52
2019-05-30T00:13:02.963Z,101239.58
2019-05-30T00:15:35.121Z,101240.16
2019-05-30T00:18:07.088Z,101242.66
2019-05-30T00:20:38.988Z,101246.17
2019-05-30T00:23:11.231Z,101240.27
2019-05-30T00:25:44.814Z,101239.70
2019-05-30T00:28:16.756Z,101248.05
2019-05-30T00:30:48.744Z,101248.58
2019-05-30T00:33:20.613Z,101247.39
2019-05-30T00:35:52.601Z,101255.45
2019-05-30T00:38:24.450Z,101254.13
2019-05-30T00:40:57.817Z,101260.80
2019-05-30T00:43:29.731Z,101266.61
2019-05-30T00:46:04.213Z,101262.39
2019-05-30T00:48:36.240Z,101260.65
2019-05-30T00:51:08.653Z,101264.22
2019-05-30T00:53:40.536Z,101271.92
2019-05-30T00:56:13.204Z,101271.83
2019-05-30T00:58:44.976Z,101260.75
2019-05-30T01:01:17.250Z,101264.52
2019-05-30T01:03:48.982Z,101258.09
2019-05-30T01:06:21.166Z,101261.16
2019-05-30T01:08:53.023Z,101259.04
2019-05-30T01:11:25.498Z,101255.53
2019-05-30T01:13:57.262Z,101260.87
2019-05-30T01:16:29.524Z,101261.03
2019-05-30T01:19:01.342Z,101255.53
2019-05-30T01:21:33.343Z,101258.25
2019-05-30T01:24:05.671Z,101261.45
2019-05-30T01:26:38.198Z,101264.16
2019-05-30T01:29:10.228Z,101259.97
2019-05-30T01:31:42.530Z,101264.27
2019-05-30T01:34:14.318Z,101262.75
2019-05-30T01:36:46.351Z,101261.73
2019-05-30T01:39:18.138Z,101268.43
2019-05-30T01:41:50.481Z,101267.64
2019-05-30T01:44:22.282Z,101255.93
2019-05-30T01:46:54.314Z,101262.52
2019-05-30T01:49:26.152Z,101258.23
2019-05-30T01:51:58.375Z,101266.90
2019-05-30T01:54:30.482Z,101263.92
2019-05-30T01:57:02.661Z,101264.77
2019-05-30T01:59:34.449Z,101265.23
2019-05-30T02:02:07.257Z,101267.52
2019-05-30T02:04:39.194Z,101264.16
2019-05-30T02:07:11.046Z,101262.60
2019-05-30T02:09:42.789Z,101263.06
2019-05-30T02:12:15.192Z,101262.78
2019-05-30T02:14:47.026Z,101263.67
2019-05-30T02:17:19.123Z,101257.61
2019-05-30T02:19:50.919Z,101252.95
2019-05-30T02:22:23.031Z,101259.86
2019-05-30T02:24:54.844Z,101259.53
2019-05-30T02:27:27.268Z,101256.18
2019-05-30T02:30:00.065Z,101259.69
2019-05-30T02:32:32.248Z,101263.09
2019-05-30T02:35:05.335Z,101271.08
2019-05-30T02:37:37.986Z,101278.16
2019-05-30T02:40:14.823Z,101279.65
2019-05-30T02:42:44.787Z,101277.13
2019-05-30T02:45:18.333Z,101282.79
2019-05-30T02:47:50.344Z,101277.87
2019-05-30T02:50:22.420Z,101279.57
2019-05-30T02:52:54.485Z,101285.35
2019-05-30T02:55:26.220Z,101295.84
2019-05-30T02:57:58.536Z,101291.32
2019-05-30T03:00:38.022Z,101298.55
2019-05-30T03:03:13.931Z,101303.72
2019-05-30T03:05:43.490Z,101301.94
2019-05-30T03:08:15.454Z,101307.44
2019-05-30T03:10:47.750Z,101306.93
2019-05-30T03:13:20.943Z,101306.42
2019-05-30T03:15:53.418Z,101307.11
2019-05-30T03:18:25.707Z,101305.70
2019-05-30T03:20:57.443Z,101311.63
2019-05-30T03:23:29.668Z,101312.83
2019-05-30T03:26:02.581Z,101316.70
2019-05-30T03:28:35.067Z,101318.75
2019-05-30T03:31:21.219Z,101322.05
2019-05-30T03:33:43.429Z,101332.87
2019-05-30T03:36:27.663Z,101333.48
2019-05-30T03:38:48.970Z,101331.07
2019-05-30T03:41:20.736Z,101337.36
2019-05-30T03:43:52.897Z,101343.28
2019-05-30T03:46:30.349Z,101343.17
2019-05-30T03:49:06.741Z,101348.58
2019-05-30T03:51:42.662Z,101350.19
2019-05-30T03:54:15.989Z,101348.16
2019-05-30T03:56:55.600Z,101344.03
2019-05-30T03:59:36.703Z,101338.13
2019-05-30T04:02:31.222Z,101339.64
2019-05-30T04:05:11.252Z,101341.20
2019-05-30T04:07:49.373Z,101334.41
2019-05-30T04:10:25.417Z,101337.27
2019-05-30T04:13:42.852Z,101334.39
2019-05-30T04:16:15.747Z,101338.99
2019-05-30T04:18:47.907Z,101341.32
2019-05-30T04:21:21.653Z,101338.97
2019-05-30T04:23:53.191Z,101346.53
2019-05-30T04:26:25.423Z,101345.89
2019-05-30T04:28:57.203Z,101350.87
2019-05-30T04:31:29.346Z,101349.62
2019-05-30T04:34:01.139Z,101354.88
2019-05-30T04:36:33.009Z,101366.20
2019-05-30T04:39:06.679Z,101365.90
2019-05-30T04:41:38.598Z,101367.93
2019-05-30T04:44:11.994Z,101367.95
2019-05-30T04:46:44.909Z,101368.95
2019-05-30T04:49:17.345Z,101370.80
2019-05-30T04:51:51.250Z,101374.27
2019-05-30T04:54:23.995Z,101374.73
2019-05-30T04:56:55.808Z,101381.78
2019-05-30T04:59:27.666Z,101370.98
2019-05-30T05:01:59.785Z,101370.56
2019-05-30T05:04:31.544Z,101370.30
2019-05-30T05:07:03.771Z,101365.03
2019-05-30T05:09:35.526Z,101369.42
2019-05-30T05:12:07.684Z,101362.83
2019-05-30T05:14:39.423Z,101369.22
2019-05-30T05:17:12.717Z,101371.41
2019-05-30T05:19:44.532Z,101369.28
2019-05-30T05:22:17.021Z,101371.80
2019-05-30T05:24:49.034Z,101374.12
2019-05-30T05:27:21.753Z,101380.42
2019-05-30T05:29:53.790Z,101380.26
2019-05-30T05:32:25.585Z,101376.53
2019-05-30T05:34:57.383Z,101383.05
2019-05-30T05:37:29.259Z,101386.14
2019-05-30T05:40:01.030Z,101388.18
2019-05-30T05:42:33.305Z,101392.03
2019-05-30T05:45:05.926Z,101387.29
2019-05-30T05:47:37.806Z,101382.53
2019-05-30T05:50:10.681Z,101377.80
2019-05-30T05:52:42.653Z,101381.40
2019-05-30T05:55:14.504Z,101377.09
2019-05-30T05:57:46.345Z,101378.34
2019-05-30T06:00:19.051Z,101384.42
2019-05-30T06:02:52.444Z,101393.06
2019-05-30T06:05:24.374Z,101393.34
2019-05-30T06:07:56.337Z,101393.61
2019-05-30T06:10:28.114Z,101397.34
2019-05-30T06:13:00.101Z,101401.23
2019-05-30T06:15:31.885Z,101395.92
2019-05-30T06:18:04.264Z,101397.63
2019-05-30T06:20:36.131Z,101396.34
2019-05-30T06:23:07.983Z,101394.75
2019-05-30T06:25:39.790Z,101396.34
2019-05-30T06:28:11.916Z,101398.89
2019-05-30T06:30:43.967Z,101401.62
2019-05-30T06:33:16.046Z,101402.86
2019-05-30T06:35:47.800Z,101400.78
2019-05-30T06:38:20.989Z,101408.34
2019-05-30T06:40:53.116Z,101406.81
2019-05-30T06:43:26.127Z,101405.80
2019-05-30T06:45:59.427Z,101410.88
2019-05-30T06:48:31.618Z,101409.44
2019-05-30T06:51:03.414Z,101413.25
2019-05-30T06:53:35.261Z,101407.91
2019-05-30T06:56:07.376Z,101411.74
2019-05-30T06:58:48.470Z,101409.80
2019-05-30T07:01:12.699Z,101413.88
2019-05-30T07:03:44.992Z,101419.84
2019-05-30T07:06:17.636Z,101417.39
2019-05-30T07:08:50.296Z,101412.23
2019-05-30T07:11:22.685Z,101410.58
2019-05-30T07:13:54.831Z,101407.63
2019-05-30T07:16:27.356Z,101409.27
2019-05-30T07:19:01.015Z,101402.98
2019-05-30T07:21:33.899Z,101401.53
2019-05-30T07:24:06.131Z,101401.05
2019-05-30T07:26:38.539Z,101401.46
2019-05-30T07:29:10.404Z,101397.68
2019-05-30T07:31:42.216Z,101394.09
2019-05-30T07:34:14.438Z,101395.73
2019-05-30T07:36:46.234Z,101395.63
2019-05-30T07:39:18.040Z,101399.91
2019-05-30T07:42:05.292Z,101402.11
2019-05-30T07:44:24.511Z,101407.33
2019-05-30T07:46:56.371Z,101408.91
2019-05-30T07:49:28.577Z,101406.13
2019-05-30T07:52:00.447Z,101407.58
2019-05-30T07:54:33.063Z,101402.00
2019-05-30T07:57:05.097Z,101396.35
2019-05-30T07:59:37.049Z,101395.33
2019-05-30T08:02:09.292Z,101394.84
2019-05-30T08:04:41.425Z,101403.70
2019-05-30T08:07:13.226Z,101407.08
2019-05-30T08:09:45.006Z,101397.56
2019-05-30T08:12:16.744Z,101399.73
2019-05-30T08:14:48.727Z,101398.27
2019-05-30T08:17:20.479Z,101400.70
2019-05-30T08:19:52.752Z,101402.28
2019-05-30T08:22:24.552Z,101409.64
2019-05-30T08:24:56.505Z,101398.50
2019-05-30T08:27:28.250Z,101400.91
2019-05-30T08:30:00.140Z,101406.61
2019-05-30T08:32:32.479Z,101404.97
2019-05-30T08:35:05.492Z,101411.42
2019-05-30T08:37:37.413Z,101412.72
2019-05-30T08:40:09.707Z,101411.27
2019-05-30T08:42:41.467Z,101412.59
2019-05-30T08:45:14.298Z,101414.81
2019-05-30T08:47:46.107Z,101410.73
2019-05-30T08:50:19.280Z,101410.20
2019-05-30T08:52:51.090Z,101405.28
2019-05-30T08:55:22.924Z,101407.20
2019-05-30T08:57:54.886Z,101405.72
2019-05-30T09:00:29.193Z,101403.50
2019-05-30T09:03:00.976Z,101391.39
2019-05-30T09:05:33.175Z,101393.17
2019-05-30T09:08:04.936Z,101388.34
2019-05-30T09:10:37.789Z,101390.95
2019-05-30T09:13:10.583Z,101386.28
2019-05-30T09:15:43.047Z,101388.77
2019-05-30T09:18:15.015Z,101395.78
2019-05-30T09:20:47.530Z,101397.36
2019-05-30T09:23:19.286Z,101393.50
2019-05-30T09:25:51.491Z,101394.20
2019-05-30T09:28:23.266Z,101382.94
2019-05-30T09:30:55.432Z,101384.19
2019-05-30T09:33:27.232Z,101387.23
2019-05-30T09:36:12.265Z,101382.66
2019-05-30T09:38:32.887Z,101387.93
2019-05-30T09:41:04.914Z,101378.05
2019-05-30T09:43:36.847Z,101374.43
2019-05-30T09:46:08.934Z,101374.89
2019-05-30T09:48:42.049Z,101365.68
2019-05-30T09:51:14.446Z,101369.55
2019-05-30T09:53:46.193Z,101374.09
2019-05-30T09:56:18.241Z,101367.88
2019-05-30T09:58:50.104Z,101370.13
2019-05-30T10:01:21.962Z,101370.22
2019-05-30T10:03:53.724Z,101369.66
2019-05-30T10:06:29.341Z,101356.30
2019-05-30T10:08:59.401Z,101363.91
2019-05-30T10:11:31.359Z,101363.64
2019-05-30T10:14:03.172Z,101353.44
2019-05-30T10:16:35.386Z,101355.34
2019-05-30T10:19:08.290Z,101365.18
2019-05-30T10:21:40.630Z,101360.42
2019-05-30T10:24:12.403Z,101349.70
2019-05-30T10:26:45.593Z,101346.56
2019-05-30T10:29:17.776Z,101349.84
2019-05-30T10:31:50.603Z,101343.61
2019-05-30T10:34:22.552Z,101340.02
2019-05-30T10:36:55.699Z,101340.27
2019-05-30T10:39:27.521Z,101345.65
2019-05-30T10:41:59.614Z,101340.08
2019-05-30T10:44:31.497Z,101338.38
2019-05-30T10:47:03.447Z,101334.38
2019-05-30T10:49:35.465Z,101334.56
2019-05-30T10:52:07.576Z,101334.78
2019-05-30T10:54:39.391Z,101330.48
2019-05-30T10:57:11.398Z,101330.02
2019-05-30T10:59:43.271Z,101323.44
2019-05-30T11:02:16.453Z,101316.92
2019-05-30T11:04:48.929Z,101319.86
2019-05-30T11:08:04.871Z,101316.69
2019-05-30T11:10:43.845Z,101324.86
2019-05-30T11:13:18.071Z,101318.30
2019-05-30T11:15:51.496Z,101315.02
2019-05-30T11:18:23.722Z,101315.48
2019-05-30T11:20:56.304Z,101313.62
2019-05-30T11:23:29.656Z,101308.64
2019-05-30T11:26:01.458Z,101313.01
2019-05-30T11:28:33.233Z,101308.83
2019-05-30T11:31:05.361Z,101315.94
2019-05-30T11:33:37.558Z,101317.02
2019-05-30T11:36:09.346Z,101318.08
2019-05-30T11:38:41.655Z,101305.84
2019-05-30T11:41:13.411Z,101304.66
2019-05-30T11:43:45.423Z,101309.67
2019-05-30T11:46:17.170Z,101306.00
2019-05-30T11:48:49.552Z,101310.17
2019-05-30T11:51:21.420Z,101305.44
2019-05-30T11:53:53.846Z,101311.32
2019-05-30T11:56:25.643Z,101304.95
2019-05-30T11:58:58.101Z,101301.95
2019-05-30T12:01:30.054Z,101305.64
2019-05-30T12:04:02.146Z,101302.89
2019-05-30T12:06:33.916Z,101299.67
2019-05-30T12:09:08.615Z,101291.84
2019-05-30T12:11:40.469Z,101287.80
2019-05-30T12:14:12.462Z,101292.38
2019-05-30T12:16:44.284Z,101295.84
2019-05-30T12:19:16.105Z,101288.35
2019-05-30T12:21:47.903Z,101290.67
2019-05-30T12:24:20.220Z,101287.25
2019-05-30T12:26:52.010Z,101284.73
2019-05-30T12:29:23.994Z,101282.83
2019-05-30T12:31:58.403Z,101284.64
2019-05-30T12:34:29.342Z,101289.14
2019-05-30T12:37:01.096Z,101289.66
2019-05-30T12:39:33.830Z,101297.80
2019-05-30T12:42:05.776Z,101288.75
2019-05-30T12:44:37.873Z,101299.15
2019-05-30T12:47:09.712Z,101291.99
2019-05-30T12:49:41.688Z,101291.77
2019-05-30T12:52:13.476Z,101292.64
2019-05-30T12:54:45.620Z,101292.70
2019-05-30T12:57:17.376Z,101289.73
2019-05-30T12:59:49.464Z,101291.72
2019-05-30T13:02:21.254Z,101284.36
2019-05-30T13:04:53.283Z,101296.64
2019-05-30T13:07:25.074Z,101284.45
2019-05-30T13:09:57.160Z,101286.12
2019-05-30T13:12:28.981Z,101290.87
2019-05-30T13:15:01.952Z,101293.70
2019-05-30T13:17:33.931Z,101294.23
2019-05-30T13:20:07.790Z,101292.42
2019-05-30T13:22:40.251Z,101291.53
2019-05-30T13:25:15.331Z,101283.98
2019-05-30T13:27:47.100Z,101286.30
2019-05-30T13:30:21.091Z,101287.89
2019-05-30T13:32:52.885Z,101289.80
2019-05-30T13:35:24.932Z,101289.66
2019-05-30T13:37:57.156Z,101284.30
2019-05-30T13:40:29.470Z,101281.93
2019-05-30T13:43:01.930Z,101280.80
2019-05-30T13:45:35.340Z,101272.36
2019-05-30T13:48:08.530Z,101279.44
2019-05-30T13:50:40.808Z,101276.80
2019-05-30T13:53:12.612Z,101270.56
2019-05-30T13:55:45.251Z,101266.19
2019-05-30T13:58:17.117Z,101264.75
2019-05-30T14:00:48.979Z,101268.17
2019-05-30T14:03:20.790Z,101268.52
2019-05-30T14:05:52.795Z,101272.15
2019-05-30T14:08:24.634Z,101270.98
2019-05-30T14:10:56.764Z,101271.42
2019-05-30T14:13:29.726Z,101268.89
2019-05-30T14:16:02.746Z,101261.06
2019-05-30T14:18:34.761Z,101252.30
2019-05-30T14:21:07.514Z,101255.33
2019-05-30T14:23:39.512Z,101239.33
2019-05-30T14:26:12.395Z,101243.11
2019-05-30T14:28:44.905Z,101249.39
2019-05-30T14:31:16.838Z,101245.31
2019-05-30T14:33:48.689Z,101244.05
2019-05-30T14:36:20.516Z,101243.87
2019-05-30T14:38:58.523Z,101234.59
2019-05-30T14:41:26.491Z,101234.92
2019-05-30T14:43:58.358Z,101233.48
2019-05-30T14:46:30.461Z,101223.69
2019-05-30T14:49:02.254Z,101226.47
2019-05-30T14:51:35.383Z,101226.00
2019-05-30T14:54:07.372Z,101229.29
2019-05-30T14:56:39.645Z,101223.73
2019-05-30T14:59:11.434Z,101218.73
2019-05-30T15:01:43.285Z,101232.64
2019-05-30T15:04:15.144Z,101227.27
2019-05-30T15:06:46.995Z,101235.84
2019-05-30T15:09:25.923Z,101229.87
2019-05-30T15:11:52.878Z,101232.00
2019-05-30T15:14:24.702Z,101228.08
2019-05-30T15:16:56.624Z,101227.56
2019-05-30T15:19:28.401Z,101221.44
2019-05-30T15:22:00.514Z,101221.19
2019-05-30T15:24:32.440Z,101217.19
2019-05-30T15:27:05.871Z,101217.37
2019-05-30T15:29:38.105Z,101216.20
2019-05-30T15:32:10.322Z,101212.07
2019-05-30T15:34:42.279Z,101210.25
2019-05-30T15:37:14.855Z,101204.10
2019-05-30T15:39:46.716Z,101202.49
2019-05-30T15:42:18.969Z,101203.66
2019-05-30T15:44:50.771Z,101195.93
2019-05-30T15:47:22.573Z,101196.94
2019-05-30T15:49:54.359Z,101201.67
2019-05-30T15:52:26.211Z,101192.27
2019-05-30T15:54:58.048Z,101190.71
2019-05-30T15:57:30.049Z,101183.80
2019-05-30T16:00:01.892Z,101186.60
2019-05-30T16:02:34.410Z,101184.14
2019-05-30T16:05:07.495Z,101184.47
2019-05-30T16:07:39.539Z,101179.95
2019-05-30T16:10:12.828Z,101178.80
2019-05-30T16:12:45.356Z,101176.70
2019-05-30T16:15:17.752Z,101172.41
2019-05-30T16:17:49.614Z,101175.80
2019-05-30T16:20:22.053Z,101167.36
2019-05-30T16:22:54.103Z,101178.02
2019-05-30T16:25:25.949Z,101187.09
2019-05-30T16:27:58.142Z,101189.59
2019-05-30T16:30:30.118Z,101188.80
2019-05-30T16:33:02.153Z,101181.64
2019-05-30T16:35:33.993Z,101182.06
2019-05-30T16:38:06.088Z,101191.67
2019-05-30T16:40:37.856Z,101183.63
2019-05-30T16:43:10.056Z,101183.47
2019-05-30T16:45:41.856Z,101187.16
2019-05-30T16:48:14.318Z,101187.84
2019-05-30T16:50:46.489Z,101183.31
2019-05-30T16:53:20.023Z,101190.54
2019-05-30T16:55:54.176Z,101183.15
2019-05-30T16:58:26.707Z,101182.95
2019-05-30T17:00:58.525Z,101183.78
2019-05-30T17:03:30.458Z,101187.77
2019-05-30T17:06:02.264Z,101181.73
2019-05-30T17:08:35.946Z,101180.80
2019-05-30T17:11:07.831Z,101187.08
2019-05-30T17:13:39.705Z,101196.05
2019-05-30T17:16:11.494Z,101194.66
2019-05-30T17:18:43.320Z,101192.73
2019-05-30T17:21:16.384Z,101194.58
2019-05-30T17:23:49.492Z,101202.77
2019-05-30T17:26:21.349Z,101196.05
2019-05-30T17:28:53.667Z,101197.23
2019-05-30T17:31:26.148Z,101194.31
2019-05-30T17:33:58.396Z,101194.51
2019-05-30T17:36:30.247Z,101193.28
2019-05-30T17:39:02.142Z,101194.69
2019-05-30T17:41:35.710Z,101191.09
2019-05-30T17:44:08.017Z,101197.36
2019-05-30T17:46:39.971Z,101201.29
2019-05-30T17:49:13.260Z,101206.58
2019-05-30T17:51:45.098Z,101198.63
2019-05-30T17:54:16.891Z,101204.62
2019-05-30T17:56:48.693Z,101204.80
2019-05-30T17:59:20.547Z,101203.59
2019-05-30T18:01:52.422Z,101209.42
2019-05-30T18:04:24.573Z,101210.31
2019-05-30T18:06:56.461Z,101209.52
2019-05-30T18:09:29.126Z,101206.40
2019-05-30T18:12:01.218Z,101208.12
2019-05-30T18:14:33.504Z,101205.42
2019-05-30T18:17:05.340Z,101211.98
2019-05-30T18:19:37.311Z,101208.70
2019-05-30T18:22:09.125Z,101216.22
2019-05-30T18:24:41.026Z,101215.73
2019-05-30T18:27:12.883Z,101224.39
2019-05-30T18:29:46.206Z,101227.35
2019-05-30T18:32:18.092Z,101222.07
2019-05-30T18:34:50.135Z,101226.94
2019-05-30T18:37:22.283Z,101225.64
2019-05-30T18:39:54.647Z,101223.86
2019-05-30T18:42:27.327Z,101238.27
2019-05-30T18:45:00.511Z,101235.61
2019-05-30T18:47:33.158Z,101244.08
2019-05-30T18:50:06.016Z,101243.39
2019-05-30T18:52:37.924Z,101243.29
2019-05-30T18:55:11.402Z,101239.20
2019-05-30T18:57:43.382Z,101238.38
2019-05-30T19:00:17.656Z,101249.27
2019-05-30T19:02:49.795Z,101244.08
2019-05-30T19:05:22.205Z,101255.80
2019-05-30T19:07:54.207Z,101253.41
2019-05-30T19:10:26.231Z,101253.96
2019-05-30T19:12:58.028Z,101258.90
2019-05-30T19:15:31.499Z,101257.77
2019-05-30T19:18:03.411Z,101266.06
2019-05-30T19:20:35.845Z,101268.22
2019-05-30T19:23:07.751Z,101269.50
2019-05-30T19:25:39.843Z,101271.26
2019-05-30T19:28:11.765Z,101274.22
2019-05-30T19:30:44.299Z,101264.53
2019-05-30T19:33:16.032Z,101266.52
2019-05-30T19:35:49.758Z,101269.47
2019-05-30T19:38:21.676Z,101266.14
2019-05-30T19:40:53.809Z,101264.63
2019-05-30T19:43:25.560Z,101271.44
2019-05-30T19:45:57.609Z,101271.89
2019-05-30T19:48:30.277Z,101273.85
2019-05-30T19:51:02.349Z,101272.36
2019-05-30T19:53:34.943Z,101277.58
2019-05-30T19:56:07.716Z,101276.02
2019-05-30T19:58:39.941Z,101280.16
2019-05-30T20:01:12.251Z,101283.31
2019-05-30T20:03:46.997Z,101274.01
2019-05-30T20:06:17.595Z,101277.45
2019-05-30T20:08:55.364Z,101278.03
2019-05-30T20:11:23.290Z,101275.31
2019-05-30T20:13:55.195Z,101275.06
2019-05-30T20:16:27.327Z,101275.06
2019-05-30T20:18:59.162Z,101278.47
2019-05-30T20:21:31.745Z,101281.17
2019-05-30T20:24:03.669Z,101278.34
2019-05-30T20:26:36.633Z,101282.41
2019-05-30T20:29:08.642Z,101278.28
2019-05-30T20:31:41.499Z,101278.97
2019-05-30T20:34:13.425Z,101279.17
2019-05-30T20:36:46.968Z,101283.82
2019-05-30T20:39:19.566Z,101287.16
2019-05-30T20:41:53.945Z,101285.88
2019-05-30T20:44:25.153Z,101287.10
2019-05-30T20:46:57.438Z,101284.89
2019-05-30T20:49:29.278Z,101289.40
2019-05-30T20:52:01.371Z,101289.53
2019-05-30T20:54:33.340Z,101286.98
2019-05-30T20:57:05.328Z,101293.30
2019-05-30T20:59:38.318Z,101292.41
2019-05-30T21:02:10.714Z,101296.75
2019-05-30T21:04:42.975Z,101296.95
2019-05-30T21:07:16.349Z,101298.27
2019-05-30T21:09:49.476Z,101292.43
2019-05-30T21:12:36.940Z,101296.77
2019-05-30T21:14:59.469Z,101292.17
2019-05-30T21:17:35.784Z,101291.26
2019-05-30T21:20:11.404Z,101292.12
2019-05-30T21:22:42.405Z,101291.92
2019-05-30T21:25:14.815Z,101292.33
2019-05-30T21:27:47.301Z,101296.00
2019-05-30T21:30:19.673Z,101296.22
2019-05-30T21:32:52.524Z,101300.45
2019-05-30T21:35:25.366Z,101293.11
2019-05-30T21:37:57.699Z,101294.58
2019-05-30T21:40:29.789Z,101293.45
2019-05-30T21:43:06.701Z,101294.69
2019-05-30T21:45:35.199Z,101297.34
2019-05-30T21:48:07.813Z,101297.78
2019-05-30T21:50:43.045Z,101300.16
2019-05-30T21:53:14.507Z,101296.30
2019-05-30T21:55:46.323Z,101302.14
2019-05-30T21:58:18.330Z,101309.28
2019-05-30T22:01:36.156Z,101305.63
2019-05-30T22:04:09.153Z,101304.67
2019-05-30T22:06:41.271Z,101312.02
2019-05-30T22:09:13.675Z,101305.51
2019-05-30T22:11:45.675Z,101314.47
2019-05-30T22:14:17.840Z,101314.56
2019-05-30T22:16:50.325Z,101312.49
2019-05-30T22:19:22.710Z,101313.98
2019-05-30T22:21:54.601Z,101316.14
2019-05-30T22:24:26.712Z,101307.97
2019-05-30T22:26:58.484Z,101309.64
2019-05-30T22:29:30.343Z,101308.05
2019-05-30T22:32:02.150Z,101308.41
2019-05-30T22:34:34.557Z,101306.83
2019-05-30T22:37:06.309Z,101304.84
2019-05-30T22:39:38.277Z,101308.80
2019-05-30T22:42:10.083Z,101306.65
2019-05-30T22:44:42.110Z,101314.73
2019-05-30T22:47:13.882Z,101308.50
2019-05-30T22:49:46.677Z,101309.82
2019-05-30T22:52:18.700Z,101303.44
2019-05-30T22:54:51.233Z,101316.23
2019-05-30T22:57:23.120Z,101317.73
2019-05-30T22:59:55.424Z,101317.37
2019-05-30T23:02:27.180Z,101311.13
2019-05-30T23:04:59.280Z,101316.23
2019-05-30T23:07:31.189Z,101313.59
2019-05-30T23:10:03.107Z,101315.08
2019-05-30T23:12:34.912Z,101317.14
2019-05-30T23:15:07.864Z,101314.77
2019-05-30T23:17:39.628Z,101310.91
2019-05-30T23:20:12.082Z,101305.92
2019-05-30T23:22:43.867Z,101307.86
2019-05-30T23:25:17.928Z,101305.42
2019-05-30T23:27:50.167Z,101302.48
2019-05-30T23:30:22.527Z,101303.80
2019-05-30T23:32:54.420Z,101299.18
2019-05-30T23:35:26.501Z,101303.70
2019-05-30T23:37:58.860Z,101302.16
2019-05-30T23:40:30.802Z,101302.28
2019-05-30T23:43:02.559Z,101303.29
2019-05-30T23:45:34.784Z,101292.65
2019-05-30T23:48:07.491Z,101293.57
2019-05-30T23:50:39.723Z,101300.05
2019-05-30T23:53:11.460Z,101295.88
2019-05-30T23:55:43.547Z,101294.36
2019-05-30T23:58:15.300Z,101290.81
